N954LL KTEB-KROC
Flight info
| Callsign | N954LL |
|---|---|
| Flight time | N/A |
| Altitude | 260B360 |
| Route | |
| Aircraft | CL60/M-SADE3FGHIJ3J4J7P2RWXY/HB1D1 |
Departure
| Time | N/A |
|---|---|
| Airport | Teterboro Airport (KTEB) |
Arrival
| Time | 2026-05-09 17:30 |
|---|---|
| Airport | Frederick Douglass Greater Rochester International Airport (KROC) |
| Time | Latitude | Longitude | Altitude | Speed | Heading |
|---|---|---|---|---|---|
| 2026-05-09 16:44 | 42.03278 | -77.48879 | 34699 ft | 356 kts | 284° |
| 2026-05-09 16:44 | 42.04308 | -77.51935 | 34247 ft | 368 kts | 290° |
| 2026-05-09 16:44 | 42.05645 | -77.54963 | 33589 ft | 385 kts | 296° |
| 2026-05-09 16:44 | 42.07319 | -77.57855 | 33119 ft | 396 kts | 303° |
| 2026-05-09 16:45 | 42.09308 | -77.60452 | 32941 ft | 399 kts | 311° |
| 2026-05-09 16:45 | 42.11577 | -77.62676 | 32813 ft | 401 kts | 319° |
| 2026-05-09 16:45 | 42.14066 | -77.64454 | 32579 ft | 407 kts | 327° |
| 2026-05-09 16:45 | 42.16821 | -77.65753 | 32318 ft | 415 kts | 336° |
| 2026-05-09 16:46 | 42.19687 | -77.66432 | 32021 ft | 426 kts | 346° |
| 2026-05-09 16:46 | 42.22675 | -77.66555 | 31760 ft | 429 kts | 351° |
| 2026-05-09 16:46 | 42.25692 | -77.66578 | 31498 ft | 429 kts | 351° |
| 2026-05-09 16:46 | 42.28658 | -77.66605 | 31276 ft | 427 kts | 351° |
| 2026-05-09 16:47 | 42.31656 | -77.66632 | 30992 ft | 428 kts | 351° |
| 2026-05-09 16:47 | 42.34637 | -77.66400 | 30694 ft | 438 kts | 2° |
| 2026-05-09 16:47 | 42.37656 | -77.65430 | 29432 ft | 465 kts | 8° |
| 2026-05-09 16:47 | 42.40826 | -77.64274 | 28271 ft | 480 kts | 8° |
| 2026-05-09 16:48 | 42.44068 | -77.63103 | 27557 ft | 479 kts | 9° |
| 2026-05-09 16:48 | 42.47276 | -77.61954 | 26864 ft | 471 kts | 9° |
| 2026-05-09 16:48 | 42.50411 | -77.60871 | 26076 ft | 466 kts | 8° |
| 2026-05-09 16:48 | 42.53537 | -77.59785 | 25305 ft | 460 kts | 8° |
| 2026-05-09 16:49 | 42.56618 | -77.58715 | 24577 ft | 454 kts | 8° |
| 2026-05-09 16:49 | 42.59660 | -77.57649 | 23922 ft | 446 kts | 8° |
| 2026-05-09 16:49 | 42.62658 | -77.56596 | 23249 ft | 438 kts | 8° |
| 2026-05-09 16:50 | 42.68483 | -77.54568 | 21860 ft | 425 kts | 8° |
| 2026-05-09 16:50 | 42.71327 | -77.53587 | 21152 ft | 419 kts | 8° |
| 2026-05-09 16:50 | 42.74149 | -77.52620 | 20416 ft | 414 kts | 8° |
| 2026-05-09 16:50 | 42.76912 | -77.51685 | 19681 ft | 409 kts | 8° |
| 2026-05-09 16:51 | 42.79679 | -77.50758 | 18948 ft | 404 kts | 8° |
| 2026-05-09 16:51 | 42.82389 | -77.49862 | 18275 ft | 398 kts | 8° |
| 2026-05-09 16:51 | 42.85077 | -77.48983 | 17542 ft | 393 kts | 8° |
| 2026-05-09 16:51 | 42.87719 | -77.48128 | 16814 ft | 389 kts | 8° |
| 2026-05-09 16:52 | 42.90330 | -77.47298 | 16118 ft | 385 kts | 8° |
| 2026-05-09 16:52 | 42.92916 | -77.46493 | 15410 ft | 380 kts | 8° |
| 2026-05-09 16:52 | 42.95499 | -77.45706 | 14682 ft | 377 kts | 8° |
| 2026-05-09 16:52 | 42.98061 | -77.44939 | 13957 ft | 373 kts | 8° |
| 2026-05-09 16:53 | 43.00566 | -77.44203 | 13270 ft | 369 kts | 8° |
| 2026-05-09 16:53 | 43.03050 | -77.43284 | 12585 ft | 368 kts | 18° |
| 2026-05-09 16:53 | 43.05248 | -77.41576 | 12106 ft | 362 kts | 35° |
| 2026-05-09 16:53 | 43.06969 | -77.39182 | 11963 ft | 351 kts | 52° |
| 2026-05-09 16:54 | 43.08187 | -77.36324 | 11955 ft | 339 kts | 64° |
| 2026-05-09 16:54 | 43.09073 | -77.33395 | 11969 ft | 326 kts | 67° |
| 2026-05-09 16:54 | 43.09894 | -77.30570 | 11983 ft | 314 kts | 67° |
| 2026-05-09 16:54 | 43.10688 | -77.27838 | 11982 ft | 303 kts | 67° |
| 2026-05-09 16:55 | 43.11455 | -77.25192 | 11978 ft | 293 kts | 67° |
| 2026-05-09 16:55 | 43.12196 | -77.22627 | 11974 ft | 283 kts | 67° |
| 2026-05-09 16:55 | 43.12902 | -77.20177 | 11974 ft | 274 kts | 67° |
| 2026-05-09 16:55 | 43.13587 | -77.17794 | 11974 ft | 267 kts | 68° |
| 2026-05-09 16:56 | 43.13987 | -77.15340 | 11949 ft | 265 kts | 91° |
| 2026-05-09 16:56 | 43.13685 | -77.12879 | 11940 ft | 258 kts | 115° |
| 2026-05-09 16:56 | 43.12779 | -77.10853 | 11954 ft | 248 kts | 138° |
| 2026-05-09 16:56 | 43.11460 | -77.09406 | 11954 ft | 238 kts | 157° |
| 2026-05-09 16:57 | 43.09941 | -77.08554 | 11956 ft | 232 kts | 171° |
| 2026-05-09 16:57 | 43.08361 | -77.08098 | 11956 ft | 229 kts | 175° |
| 2026-05-09 16:57 | 43.06780 | -77.07709 | 11960 ft | 232 kts | 173° |
| 2026-05-09 16:57 | 43.05191 | -77.07274 | 11964 ft | 234 kts | 173° |
| 2026-05-09 16:58 | 43.03593 | -77.06838 | 11961 ft | 236 kts | 173° |
| 2026-05-09 16:58 | 43.01973 | -77.06396 | 11963 ft | 238 kts | 173° |
| 2026-05-09 16:58 | 43.00332 | -77.05950 | 11967 ft | 240 kts | 173° |
| 2026-05-09 16:58 | 42.98679 | -77.05501 | 11961 ft | 242 kts | 173° |
| 2026-05-09 16:59 | 42.97021 | -77.05399 | 11948 ft | 235 kts | 197° |
| 2026-05-09 16:59 | 42.95610 | -77.06338 | 11951 ft | 226 kts | 225° |
| 2026-05-09 16:59 | 42.94712 | -77.08054 | 11962 ft | 221 kts | 250° |
| 2026-05-09 16:59 | 42.94504 | -77.10123 | 11958 ft | 222 kts | 276° |
| 2026-05-09 17:00 | 42.95030 | -77.12107 | 11951 ft | 227 kts | 301° |
| 2026-05-09 17:00 | 42.96213 | -77.13551 | 11957 ft | 235 kts | 329° |
| 2026-05-09 17:00 | 42.97805 | -77.14185 | 11968 ft | 241 kts | 343° |
| 2026-05-09 17:00 | 42.99470 | -77.14611 | 11967 ft | 243 kts | 343° |
| 2026-05-09 17:01 | 43.01135 | -77.15053 | 11968 ft | 244 kts | 343° |
| 2026-05-09 17:01 | 43.02807 | -77.15499 | 11954 ft | 246 kts | 343° |
| 2026-05-09 17:01 | 43.04494 | -77.15951 | 11959 ft | 246 kts | 343° |
| 2026-05-09 17:01 | 43.06175 | -77.16402 | 11969 ft | 247 kts | 343° |
| 2026-05-09 17:02 | 43.07858 | -77.16855 | 11969 ft | 248 kts | 343° |
| 2026-05-09 17:02 | 43.09564 | -77.17314 | 11975 ft | 249 kts | 343° |
| 2026-05-09 17:02 | 43.11258 | -77.17771 | 11962 ft | 250 kts | 343° |
| 2026-05-09 17:02 | 43.12978 | -77.18234 | 11977 ft | 250 kts | 343° |
| 2026-05-09 17:03 | 43.14728 | -77.18382 | 11963 ft | 258 kts | 6° |
| 2026-05-09 17:04 | 43.11641 | -77.08608 | 11970 ft | 250 kts | 173° |
| 2026-05-09 17:05 | 43.09935 | -77.08148 | 11971 ft | 252 kts | 173° |
| 2026-05-09 17:05 | 43.08217 | -77.07685 | 11975 ft | 253 kts | 173° |
| 2026-05-09 17:05 | 43.06492 | -77.07219 | 11971 ft | 254 kts | 172° |
| 2026-05-09 17:05 | 43.04751 | -77.06750 | 11978 ft | 254 kts | 172° |
| 2026-05-09 17:06 | 43.03010 | -77.06280 | 11979 ft | 255 kts | 172° |
| 2026-05-09 17:06 | 43.01255 | -77.05807 | 11972 ft | 256 kts | 172° |
| 2026-05-09 17:06 | 42.99502 | -77.05333 | 11967 ft | 257 kts | 172° |
| 2026-05-09 17:06 | 42.97743 | -77.04933 | 11962 ft | 254 kts | 183° |
| 2026-05-09 17:07 | 42.96074 | -77.05444 | 11955 ft | 244 kts | 212° |
| 2026-05-09 17:07 | 42.95176 | -77.06380 | 11965 ft | 238 kts | 230° |
| 2026-05-09 17:07 | 42.94307 | -77.09045 | 11966 ft | 232 kts | 265° |
| 2026-05-09 17:07 | 42.94534 | -77.11188 | 11966 ft | 234 kts | 290° |
| 2026-05-09 17:08 | 42.95506 | -77.13007 | 11966 ft | 240 kts | 316° |
| 2026-05-09 17:08 | 42.98717 | -77.14426 | 11971 ft | 249 kts | 343° |
| 2026-05-09 17:08 | 43.00427 | -77.14877 | 11964 ft | 249 kts | 343° |
| 2026-05-09 17:09 | 43.02138 | -77.15332 | 11961 ft | 250 kts | 343° |
| 2026-05-09 17:09 | 43.03850 | -77.15790 | 11960 ft | 250 kts | 343° |
| 2026-05-09 17:09 | 43.05557 | -77.16247 | 11965 ft | 250 kts | 343° |
| 2026-05-09 17:09 | 43.07257 | -77.16702 | 11965 ft | 250 kts | 343° |
| 2026-05-09 17:10 | 43.08958 | -77.17158 | 11971 ft | 250 kts | 343° |
| 2026-05-09 17:10 | 43.10677 | -77.17620 | 11961 ft | 250 kts | 343° |
| 2026-05-09 17:10 | 43.12398 | -77.18082 | 11970 ft | 250 kts | 343° |
| 2026-05-09 17:10 | 43.14108 | -77.18448 | 11964 ft | 254 kts | 356° |
| 2026-05-09 17:11 | 43.15824 | -77.17854 | 11962 ft | 262 kts | 26° |
| 2026-05-09 17:11 | 43.17126 | -77.16089 | 11967 ft | 267 kts | 60° |
| 2026-05-09 17:11 | 43.17555 | -77.13685 | 11979 ft | 260 kts | 94° |
| 2026-05-09 17:11 | 43.17007 | -77.11401 | 11981 ft | 249 kts | 129° |
| 2026-05-09 17:12 | 43.15749 | -77.09926 | 11979 ft | 235 kts | 160° |
| 2026-05-09 17:12 | 43.14216 | -77.09340 | 11982 ft | 225 kts | 173° |
| 2026-05-09 17:12 | 43.12685 | -77.08934 | 11974 ft | 223 kts | 173° |
| 2026-05-09 17:12 | 43.11156 | -77.08519 | 11968 ft | 221 kts | 173° |
| 2026-05-09 17:13 | 43.09664 | -77.08115 | 11962 ft | 218 kts | 173° |
| 2026-05-09 17:13 | 43.08173 | -77.07715 | 11961 ft | 215 kts | 174° |
| 2026-05-09 17:13 | 43.06715 | -77.07324 | 11956 ft | 213 kts | 174° |
| 2026-05-09 17:13 | 43.05273 | -77.06939 | 11957 ft | 210 kts | 174° |
| 2026-05-09 17:14 | 43.03840 | -77.06557 | 11954 ft | 207 kts | 174° |
| 2026-05-09 17:14 | 43.02434 | -77.06182 | 11953 ft | 205 kts | 174° |
| 2026-05-09 17:14 | 43.01051 | -77.05814 | 11959 ft | 201 kts | 174° |
| 2026-05-09 17:14 | 42.99681 | -77.05450 | 11951 ft | 199 kts | 174° |
| 2026-05-09 17:15 | 42.98329 | -77.05099 | 11954 ft | 195 kts | 178° |
| 2026-05-09 17:15 | 42.97038 | -77.05271 | 11931 ft | 182 kts | 207° |
| 2026-05-09 17:15 | 42.95981 | -77.06144 | 11947 ft | 172 kts | 229° |
| 2026-05-09 17:15 | 42.95290 | -77.07405 | 11952 ft | 164 kts | 248° |
| 2026-05-09 17:16 | 42.94984 | -77.08854 | 11953 ft | 158 kts | 266° |
| 2026-05-09 17:17 | 43.01441 | -77.15138 | 11981 ft | 232 kts | 342° |
| 2026-05-09 17:18 | 43.03080 | -77.15557 | 11970 ft | 246 kts | 345° |
| 2026-05-09 17:18 | 43.04803 | -77.16007 | 11676 ft | 264 kts | 343° |
| 2026-05-09 17:18 | 43.06656 | -77.16525 | 11153 ft | 277 kts | 346° |
| 2026-05-09 17:18 | 43.08590 | -77.17006 | 10619 ft | 283 kts | 348° |
| 2026-05-09 17:19 | 43.10537 | -77.17486 | 10085 ft | 286 kts | 342° |
| 2026-05-09 17:19 | 43.12376 | -77.18531 | 9598 ft | 282 kts | 330° |
| 2026-05-09 17:19 | 43.14099 | -77.19788 | 9125 ft | 281 kts | 329° |
| 2026-05-09 17:19 | 43.15828 | -77.21082 | 8650 ft | 280 kts | 329° |
| 2026-05-09 17:20 | 43.17541 | -77.22366 | 8172 ft | 280 kts | 329° |
| 2026-05-09 17:20 | 43.19256 | -77.23651 | 7692 ft | 279 kts | 329° |
| 2026-05-09 17:20 | 43.20953 | -77.24931 | 7219 ft | 279 kts | 329° |
| 2026-05-09 17:20 | 43.22666 | -77.26226 | 6759 ft | 278 kts | 329° |
| 2026-05-09 17:21 | 43.24340 | -77.27502 | 6291 ft | 277 kts | 329° |
| 2026-05-09 17:21 | 43.26029 | -77.28798 | 5832 ft | 276 kts | 329° |
| 2026-05-09 17:21 | 43.27694 | -77.30073 | 5373 ft | 275 kts | 329° |
| 2026-05-09 17:21 | 43.29369 | -77.31361 | 4923 ft | 274 kts | 329° |
| 2026-05-09 17:22 | 43.31028 | -77.32639 | 4482 ft | 273 kts | 329° |
| 2026-05-09 17:22 | 43.32688 | -77.33924 | 4030 ft | 272 kts | 329° |
| 2026-05-09 17:22 | 43.34332 | -77.35200 | 3591 ft | 270 kts | 329° |
| 2026-05-09 17:22 | 43.35945 | -77.36455 | 3160 ft | 269 kts | 329° |
| 2026-05-09 17:23 | 43.37412 | -77.38010 | 2704 ft | 264 kts | 305° |
| 2026-05-09 17:23 | 43.38146 | -77.40207 | 2480 ft | 246 kts | 275° |
| 2026-05-09 17:23 | 43.37924 | -77.42381 | 2469 ft | 220 kts | 242° |
| 2026-05-09 17:23 | 43.37235 | -77.44231 | 2470 ft | 221 kts | 239° |
| 2026-05-09 17:25 | 43.31900 | -77.51243 | 2475 ft | 206 kts | 206° |
| 2026-05-09 17:25 | 43.30632 | -77.52098 | 2469 ft | 198 kts | 208° |
| 2026-05-09 17:25 | 43.29451 | -77.52997 | 2464 ft | 189 kts | 212° |
| 2026-05-09 17:25 | 43.28351 | -77.53924 | 2471 ft | 181 kts | 214° |
| 2026-05-09 17:26 | 43.27317 | -77.54845 | 2465 ft | 175 kts | 213° |
| 2026-05-09 17:26 | 43.26313 | -77.55727 | 2429 ft | 171 kts | 213° |
| 2026-05-09 17:26 | 43.25296 | -77.56593 | 2441 ft | 169 kts | 210° |
| 2026-05-09 17:26 | 43.24284 | -77.57414 | 2458 ft | 167 kts | 210° |
| 2026-05-09 17:27 | 43.23287 | -77.58231 | 2460 ft | 166 kts | 211° |
| 2026-05-09 17:27 | 43.22294 | -77.59062 | 2461 ft | 166 kts | 211° |
| 2026-05-09 17:27 | 43.21428 | -77.59779 | 2461 ft | 160 kts | 210° |
| 2026-05-09 17:27 | 43.20477 | -77.60555 | 2361 ft | 160 kts | 210° |
| 2026-05-09 17:28 | 43.19523 | -77.61322 | 2147 ft | 155 kts | 209° |
| 2026-05-09 17:28 | 43.18615 | -77.62069 | 1958 ft | 149 kts | 210° |
| 2026-05-09 17:28 | 43.17736 | -77.62807 | 1758 ft | 146 kts | 211° |
| 2026-05-09 17:28 | 43.16878 | -77.63541 | 1569 ft | 144 kts | 212° |
| 2026-05-09 17:29 | 43.16026 | -77.64238 | 1399 ft | 142 kts | 212° |
| 2026-05-09 17:29 | 43.15176 | -77.64965 | 1220 ft | 146 kts | 214° |
| 2026-05-09 17:29 | 43.14317 | -77.65713 | 1032 ft | 150 kts | 210° |
| 2026-05-09 17:29 | 43.13390 | -77.66446 | 830 ft | 151 kts | 210° |
| 2026-05-09 17:30 | 43.12503 | -77.67241 | 597 ft | 150 kts | 210° |
| 2026-05-09 17:30 | 43.11734 | -77.67889 | 541 ft | 76 kts | 212° |
| 2026-05-09 17:30 | 43.11597 | -77.68008 | 538 ft | 9 kts | 213° |
| 2026-05-09 17:30 | 43.11542 | -77.68052 | 537 ft | 9 kts | 210° |
| 2026-05-09 17:31 | 43.11487 | -77.68099 | 536 ft | 9 kts | 212° |
| 2026-05-09 17:31 | 43.11432 | -77.68147 | 535 ft | 9 kts | 212° |
| 2026-05-09 17:32 | 43.11212 | -77.68330 | 532 ft | 8 kts | 208° |
| 2026-05-09 17:32 | 43.11149 | -77.68358 | 532 ft | 10 kts | 190° |
| 2026-05-09 17:32 | 43.11085 | -77.68343 | 531 ft | 9 kts | 137° |
| 2026-05-09 17:33 | 43.11080 | -77.68269 | 532 ft | 8 kts | 40° |
| 2026-05-09 17:33 | 43.11124 | -77.68228 | 532 ft | 7 kts | 31° |
| 2026-05-09 17:33 | 43.11163 | -77.68195 | 533 ft | 5 kts | 31° |
| 2026-05-09 17:33 | 43.11193 | -77.68172 | 533 ft | 4 kts | 30° |
| 2026-05-09 17:34 | 43.11216 | -77.68153 | 533 ft | 3 kts | 32° |
| 2026-05-09 17:35 | 43.11421 | -77.67979 | 536 ft | 8 kts | 31° |
| 2026-05-09 17:35 | 43.11467 | -77.67941 | 537 ft | 6 kts | 32° |
| 2026-05-09 17:36 | 43.11503 | -77.67911 | 538 ft | 5 kts | 31° |
| 2026-05-09 17:36 | 43.11529 | -77.67889 | 538 ft | 3 kts | 32° |
| 2026-05-09 17:36 | 43.11557 | -77.67866 | 539 ft | 5 kts | 30° |
| 2026-05-09 17:36 | 43.11595 | -77.67833 | 540 ft | 7 kts | 34° |
| 2026-05-09 17:37 | 43.11645 | -77.67791 | 541 ft | 9 kts | 31° |
| 2026-05-09 17:37 | 43.11692 | -77.67751 | 542 ft | 10 kts | 32° |
| 2026-05-09 17:37 | 43.11756 | -77.67698 | 543 ft | 11 kts | 31° |
| 2026-05-09 17:37 | 43.11828 | -77.67637 | 545 ft | 12 kts | 31° |
| 2026-05-09 17:38 | 43.11909 | -77.67570 | 546 ft | 14 kts | 32° |
| 2026-05-09 17:38 | 43.11989 | -77.67494 | 549 ft | 13 kts | 58° |
| 2026-05-09 17:38 | 43.11975 | -77.67384 | 549 ft | 11 kts | 109° |
| 2026-05-09 17:39 | 43.11911 | -77.67132 | 550 ft | 17 kts | 109° |
| 2026-05-09 17:39 | 43.11865 | -77.66959 | 549 ft | 20 kts | 108° |
| 2026-05-09 17:39 | 43.11817 | -77.66777 | 548 ft | 20 kts | 110° |
| 2026-05-09 17:39 | 43.11775 | -77.66616 | 547 ft | 10 kts | 108° |
| 2026-05-09 17:40 | 43.11791 | -77.66523 | 546 ft | 10 kts | 65° |
| 2026-05-09 17:40 | 43.11823 | -77.66432 | 546 ft | 10 kts | 63° |
| 2026-05-09 17:40 | 43.11823 | -77.66368 | 545 ft | 5 kts | 149° |
| 2026-05-09 17:40 | 43.11792 | -77.66344 | 545 ft | 5 kts | 150° |
| 2026-05-09 17:41 | 43.11760 | -77.66322 | 544 ft | 5 kts | 155° |
| 2026-05-09 17:41 | 43.11730 | -77.66295 | 544 ft | 4 kts | 125° |
| 2026-05-09 17:41 | 43.11711 | -77.66260 | 543 ft | 4 kts | 126° |
| 2026-05-09 17:41 | 43.11701 | -77.66225 | 543 ft | 0 kts | 59° |